Terminal Aerodrome Forecast
Issued by NWS

Home | Current Version | Previous Version | Text Only | Print | Product List | Glossary On
Versions: 1 2 3 4 5 6 7 8 9 10 11 12 13 14 15 16 17 18 19 20 21 22 23
000
FTUS45 KFGZ 012024 AAA
TAFPRC
TAF AMD
KPRC 012024Z 0120/0218 VRB06KT P6SM SCT015 BKN035 BKN060
      TEMPO 0120/0124 5SM -SHRA BKN015
     FM020200 20004KT P6SM SCT060 BKN080=

USA.gov is the U.S. government's official web portal to all federal, state and local government web resources and services.